sensor_id;sensor_type;location;lat;lon;timestamp;pressure;altitude;pressure_sealevel;temperature;humidity
70488;BME280;57976;48.174;16.370;2023-12-28T00:00:25;99644.67;;;6.69;100.00
70488;BME280;57976;48.174;16.370;2023-12-28T00:02:30;99646.05;;;6.69;100.00
70488;BME280;57976;48.174;16.370;2023-12-28T00:04:34;99646.12;;;6.69;100.00
70488;BME280;57976;48.174;16.370;2023-12-28T00:06:39;99650.82;;;6.72;100.00
70488;BME280;57976;48.174;16.370;2023-12-28T00:08:44;99645.92;;;6.73;100.00
70488;BME280;57976;48.174;16.370;2023-12-28T00:11:00;99647.19;;;6.66;100.00
70488;BME280;57976;48.174;16.370;2023-12-28T00:13:04;99652.23;;;6.58;100.00
70488;BME280;57976;48.174;16.370;2023-12-28T00:15:10;99653.93;;;6.51;100.00
70488;BME280;57976;48.174;16.370;2023-12-28T00:17:15;99651.41;;;6.47;100.00
70488;BME280;57976;48.174;16.370;2023-12-28T00:19:19;99654.89;;;6.46;100.00
70488;BME280;57976;48.174;16.370;2023-12-28T00:21:24;99657.64;;;6.45;100.00
70488;BME280;57976;48.174;16.370;2023-12-28T00:23:29;99660.58;;;6.44;100.00
70488;BME280;57976;48.174;16.370;2023-12-28T00:25:33;99661.96;;;6.44;100.00
70488;BME280;57976;48.174;16.370;2023-12-28T00:27:41;99663.88;;;6.46;100.00
70488;BME280;57976;48.174;16.370;2023-12-28T00:29:46;99664.24;;;6.47;100.00
70488;BME280;57976;48.174;16.370;2023-12-28T00:31:52;99663.52;;;6.48;100.00
70488;BME280;57976;48.174;16.370;2023-12-28T00:33:59;99665.84;;;6.44;100.00
70488;BME280;57976;48.174;16.370;2023-12-28T00:36:05;99664.21;;;6.41;100.00
70488;BME280;57976;48.174;16.370;2023-12-28T00:38:10;99658.93;;;6.38;100.00
70488;BME280;57976;48.174;16.370;2023-12-28T00:40:15;99657.80;;;6.35;100.00
70488;BME280;57976;48.174;16.370;2023-12-28T00:42:20;99660.95;;;6.32;100.00
70488;BME280;57976;48.174;16.370;2023-12-28T00:44:25;99666.11;;;6.30;100.00
70488;BME280;57976;48.174;16.370;2023-12-28T00:46:33;99671.75;;;6.25;100.00
70488;BME280;57976;48.174;16.370;2023-12-28T00:48:37;99673.08;;;6.20;100.00
70488;BME280;57976;48.174;16.370;2023-12-28T00:50:42;99676.23;;;6.17;100.00
70488;BME280;57976;48.174;16.370;2023-12-28T00:52:47;99676.08;;;6.15;100.00
70488;BME280;57976;48.174;16.370;2023-12-28T00:54:52;99677.77;;;6.13;100.00
70488;BME280;57976;48.174;16.370;2023-12-28T00:56:57;99675.12;;;6.08;100.00
70488;BME280;57976;48.174;16.370;2023-12-28T00:59:02;99663.33;;;6.01;100.00
70488;BME280;57976;48.174;16.370;2023-12-28T01:01:07;99660.08;;;5.97;100.00
70488;BME280;57976;48.174;16.370;2023-12-28T01:03:13;99665.81;;;5.96;100.00
70488;BME280;57976;48.174;16.370;2023-12-28T01:05:17;99664.80;;;5.99;100.00
70488;BME280;57976;48.174;16.370;2023-12-28T01:07:22;99660.06;;;6.02;100.00
70488;BME280;57976;48.174;16.370;2023-12-28T01:09:28;99660.90;;;6.06;100.00
70488;BME280;57976;48.174;16.370;2023-12-28T01:11:32;99661.20;;;6.08;100.00
70488;BME280;57976;48.174;16.370;2023-12-28T01:13:37;99665.10;;;6.11;100.00
70488;BME280;57976;48.174;16.370;2023-12-28T01:15:45;99665.47;;;6.12;100.00
70488;BME280;57976;48.174;16.370;2023-12-28T01:17:50;99658.52;;;6.10;100.00
70488;BME280;57976;48.174;16.370;2023-12-28T01:19:59;99660.10;;;6.08;100.00
70488;BME280;57976;48.174;16.370;2023-12-28T01:22:04;99663.83;;;6.04;100.00
70488;BME280;57976;48.174;16.370;2023-12-28T01:24:09;99667.85;;;6.00;100.00
70488;BME280;57976;48.174;16.370;2023-12-28T01:26:15;99668.11;;;5.94;100.00
70488;BME280;57976;48.174;16.370;2023-12-28T01:28:20;99670.13;;;5.88;100.00
70488;BME280;57976;48.174;16.370;2023-12-28T01:30:24;99672.20;;;5.85;100.00
70488;BME280;57976;48.174;16.370;2023-12-28T01:32:30;99670.67;;;5.85;100.00
70488;BME280;57976;48.174;16.370;2023-12-28T01:34:35;99667.65;;;5.88;100.00
70488;BME280;57976;48.174;16.370;2023-12-28T01:36:39;99669.81;;;5.95;100.00
70488;BME280;57976;48.174;16.370;2023-12-28T01:38:44;99667.70;;;6.01;100.00
70488;BME280;57976;48.174;16.370;2023-12-28T01:40:49;99669.30;;;6.11;100.00
70488;BME280;57976;48.174;16.370;2023-12-28T01:43:00;99665.20;;;6.21;100.00
70488;BME280;57976;48.174;16.370;2023-12-28T01:45:06;99666.41;;;6.28;100.00
70488;BME280;57976;48.174;16.370;2023-12-28T01:47:17;99663.37;;;6.36;100.00
70488;BME280;57976;48.174;16.370;2023-12-28T01:49:21;99656.02;;;6.43;100.00
70488;BME280;57976;48.174;16.370;2023-12-28T01:51:27;99656.70;;;6.52;100.00
70488;BME280;57976;48.174;16.370;2023-12-28T01:53:32;99657.79;;;6.56;100.00
70488;BME280;57976;48.174;16.370;2023-12-28T01:55:36;99660.60;;;6.59;100.00
70488;BME280;57976;48.174;16.370;2023-12-28T01:57:41;99655.52;;;6.62;100.00
70488;BME280;57976;48.174;16.370;2023-12-28T01:59:47;99649.18;;;6.67;100.00
70488;BME280;57976;48.174;16.370;2023-12-28T02:01:52;99647.38;;;6.71;100.00
70488;BME280;57976;48.174;16.370;2023-12-28T02:03:57;99649.66;;;6.76;100.00
70488;BME280;57976;48.174;16.370;2023-12-28T02:06:02;99642.84;;;6.80;100.00
70488;BME280;57976;48.174;16.370;2023-12-28T02:08:07;99641.50;;;6.78;100.00
70488;BME280;57976;48.174;16.370;2023-12-28T02:10:12;99636.77;;;6.76;100.00
70488;BME280;57976;48.174;16.370;2023-12-28T02:12:17;99631.39;;;6.78;100.00
70488;BME280;57976;48.174;16.370;2023-12-28T02:14:22;99627.27;;;6.82;100.00
70488;BME280;57976;48.174;16.370;2023-12-28T02:16:36;99628.69;;;6.83;100.00
70488;BME280;57976;48.174;16.370;2023-12-28T02:18:47;99633.73;;;6.84;100.00
70488;BME280;57976;48.174;16.370;2023-12-28T02:20:52;99626.97;;;6.84;100.00
70488;BME280;57976;48.174;16.370;2023-12-28T02:22:59;99621.05;;;6.85;100.00
70488;BME280;57976;48.174;16.370;2023-12-28T02:25:08;99614.05;;;6.90;100.00
70488;BME280;57976;48.174;16.370;2023-12-28T02:27:13;99613.80;;;6.90;100.00
70488;BME280;57976;48.174;16.370;2023-12-28T02:29:17;99618.43;;;6.94;100.00
70488;BME280;57976;48.174;16.370;2023-12-28T02:31:28;99615.68;;;6.95;100.00
70488;BME280;57976;48.174;16.370;2023-12-28T02:33:38;99613.17;;;6.99;100.00
70488;BME280;57976;48.174;16.370;2023-12-28T02:35:54;99609.88;;;7.00;100.00
70488;BME280;57976;48.174;16.370;2023-12-28T02:38:06;99607.26;;;6.98;100.00
70488;BME280;57976;48.174;16.370;2023-12-28T02:40:14;99607.27;;;6.95;100.00
70488;BME280;57976;48.174;16.370;2023-12-28T02:42:20;99609.48;;;6.95;100.00
70488;BME280;57976;48.174;16.370;2023-12-28T02:44:25;99608.50;;;6.95;100.00
70488;BME280;57976;48.174;16.370;2023-12-28T02:46:30;99613.83;;;6.93;100.00
70488;BME280;57976;48.174;16.370;2023-12-28T02:48:34;99609.23;;;6.92;100.00
70488;BME280;57976;48.174;16.370;2023-12-28T02:50:40;99614.94;;;6.90;100.00
70488;BME280;57976;48.174;16.370;2023-12-28T02:52:45;99613.09;;;6.87;100.00
70488;BME280;57976;48.174;16.370;2023-12-28T02:54:50;99609.79;;;6.85;100.00
70488;BME280;57976;48.174;16.370;2023-12-28T02:56:55;99608.10;;;6.84;100.00
70488;BME280;57976;48.174;16.370;2023-12-28T02:59:00;99609.56;;;6.82;100.00
70488;BME280;57976;48.174;16.370;2023-12-28T03:01:04;99615.17;;;6.80;100.00
70488;BME280;57976;48.174;16.370;2023-12-28T03:03:12;99616.86;;;6.76;100.00
70488;BME280;57976;48.174;16.370;2023-12-28T03:05:17;99612.37;;;6.73;100.00
70488;BME280;57976;48.174;16.370;2023-12-28T03:07:28;99610.90;;;6.64;100.00
70488;BME280;57976;48.174;16.370;2023-12-28T03:09:34;99615.48;;;6.54;100.00
70488;BME280;57976;48.174;16.370;2023-12-28T03:11:38;99617.88;;;6.52;100.00
70488;BME280;57976;48.174;16.370;2023-12-28T03:13:43;99620.68;;;6.52;100.00
70488;BME280;57976;48.174;16.370;2023-12-28T03:15:48;99624.36;;;6.44;100.00
70488;BME280;57976;48.174;16.370;2023-12-28T03:17:53;99625.96;;;6.39;100.00
70488;BME280;57976;48.174;16.370;2023-12-28T03:19:58;99627.59;;;6.39;100.00
70488;BME280;57976;48.174;16.370;2023-12-28T03:22:03;99633.86;;;6.33;100.00
70488;BME280;57976;48.174;16.370;2023-12-28T03:24:11;99633.14;;;6.30;100.00
70488;BME280;57976;48.174;16.370;2023-12-28T03:26:15;99633.70;;;6.30;100.00
70488;BME280;57976;48.174;16.370;2023-12-28T03:28:20;99625.89;;;6.32;100.00
70488;BME280;57976;48.174;16.370;2023-12-28T03:30:28;99630.02;;;6.34;100.00
70488;BME280;57976;48.174;16.370;2023-12-28T03:32:33;99633.33;;;6.33;100.00
70488;BME280;57976;48.174;16.370;2023-12-28T03:34:40;99636.54;;;6.36;100.00
70488;BME280;57976;48.174;16.370;2023-12-28T03:36:45;99641.36;;;6.37;100.00
70488;BME280;57976;48.174;16.370;2023-12-28T03:38:50;99639.68;;;6.36;100.00
70488;BME280;57976;48.174;16.370;2023-12-28T03:40:55;99634.86;;;6.29;100.00
70488;BME280;57976;48.174;16.370;2023-12-28T03:42:59;99633.70;;;6.23;100.00
70488;BME280;57976;48.174;16.370;2023-12-28T03:45:05;99641.59;;;6.19;100.00
70488;BME280;57976;48.174;16.370;2023-12-28T03:47:10;99643.63;;;6.14;100.00
70488;BME280;57976;48.174;16.370;2023-12-28T03:49:16;99643.45;;;6.09;100.00
70488;BME280;57976;48.174;16.370;2023-12-28T03:51:21;99634.76;;;6.06;100.00
70488;BME280;57976;48.174;16.370;2023-12-28T03:53:26;99632.58;;;6.05;100.00
70488;BME280;57976;48.174;16.370;2023-12-28T03:55:31;99627.60;;;5.99;100.00
70488;BME280;57976;48.174;16.370;2023-12-28T03:57:35;99629.30;;;5.98;100.00
70488;BME280;57976;48.174;16.370;2023-12-28T03:59:40;99629.33;;;5.99;100.00
70488;BME280;57976;48.174;16.370;2023-12-28T04:01:46;99631.77;;;5.96;100.00
70488;BME280;57976;48.174;16.370;2023-12-28T04:03:50;99633.19;;;5.94;100.00
70488;BME280;57976;48.174;16.370;2023-12-28T04:05:57;99634.95;;;5.98;100.00
70488;BME280;57976;48.174;16.370;2023-12-28T04:08:02;99637.52;;;6.00;100.00
70488;BME280;57976;48.174;16.370;2023-12-28T04:10:09;99640.37;;;6.00;100.00
70488;BME280;57976;48.174;16.370;2023-12-28T04:12:14;99636.04;;;6.02;100.00
70488;BME280;57976;48.174;16.370;2023-12-28T04:14:21;99645.53;;;6.02;100.00
70488;BME280;57976;48.174;16.370;2023-12-28T04:16:26;99650.65;;;5.98;100.00
70488;BME280;57976;48.174;16.370;2023-12-28T04:18:31;99650.15;;;5.94;100.00
70488;BME280;57976;48.174;16.370;2023-12-28T04:20:36;99651.04;;;5.94;100.00
70488;BME280;57976;48.174;16.370;2023-12-28T04:22:41;99650.96;;;5.89;100.00
70488;BME280;57976;48.174;16.370;2023-12-28T04:24:46;99644.08;;;5.86;100.00
70488;BME280;57976;48.174;16.370;2023-12-28T04:26:51;99650.02;;;5.85;100.00
70488;BME280;57976;48.174;16.370;2023-12-28T04:28:56;99654.40;;;5.89;100.00
70488;BME280;57976;48.174;16.370;2023-12-28T04:31:03;99659.80;;;5.94;100.00
70488;BME280;57976;48.174;16.370;2023-12-28T04:33:08;99661.80;;;5.94;100.00
70488;BME280;57976;48.174;16.370;2023-12-28T04:35:13;99657.97;;;5.93;100.00
70488;BME280;57976;48.174;16.370;2023-12-28T04:37:18;99656.26;;;5.96;100.00
70488;BME280;57976;48.174;16.370;2023-12-28T04:39:24;99658.45;;;5.99;100.00
70488;BME280;57976;48.174;16.370;2023-12-28T04:41:28;99666.88;;;6.06;100.00
70488;BME280;57976;48.174;16.370;2023-12-28T04:43:33;99667.05;;;6.06;100.00
70488;BME280;57976;48.174;16.370;2023-12-28T04:45:39;99665.98;;;6.02;100.00
70488;BME280;57976;48.174;16.370;2023-12-28T04:47:46;99667.94;;;6.01;100.00
70488;BME280;57976;48.174;16.370;2023-12-28T04:49:54;99683.16;;;5.99;100.00
70488;BME280;57976;48.174;16.370;2023-12-28T04:52:01;99690.13;;;5.93;100.00
70488;BME280;57976;48.174;16.370;2023-12-28T04:54:06;99695.41;;;5.92;100.00
70488;BME280;57976;48.174;16.370;2023-12-28T04:56:10;99697.84;;;5.95;100.00
70488;BME280;57976;48.174;16.370;2023-12-28T04:58:15;99692.39;;;5.98;100.00
70488;BME280;57976;48.174;16.370;2023-12-28T05:00:20;99693.13;;;6.00;100.00
70488;BME280;57976;48.174;16.370;2023-12-28T05:02:26;99695.39;;;5.98;100.00
70488;BME280;57976;48.174;16.370;2023-12-28T05:04:31;99692.55;;;5.96;100.00
70488;BME280;57976;48.174;16.370;2023-12-28T05:06:36;99689.38;;;5.95;100.00
70488;BME280;57976;48.174;16.370;2023-12-28T05:08:41;99688.99;;;5.95;100.00
70488;BME280;57976;48.174;16.370;2023-12-28T05:10:45;99695.68;;;5.92;100.00
70488;BME280;57976;48.174;16.370;2023-12-28T05:12:51;99693.47;;;5.89;100.00
70488;BME280;57976;48.174;16.370;2023-12-28T05:15:06;99699.31;;;5.89;100.00
70488;BME280;57976;48.174;16.370;2023-12-28T05:17:11;99697.79;;;5.92;100.00
70488;BME280;57976;48.174;16.370;2023-12-28T05:19:16;99697.08;;;5.95;100.00
70488;BME280;57976;48.174;16.370;2023-12-28T05:21:21;99701.13;;;5.97;100.00
70488;BME280;57976;48.174;16.370;2023-12-28T05:23:26;99698.88;;;5.99;100.00
70488;BME280;57976;48.174;16.370;2023-12-28T05:25:30;99694.13;;;5.93;100.00
70488;BME280;57976;48.174;16.370;2023-12-28T05:27:35;99691.35;;;5.88;100.00
70488;BME280;57976;48.174;16.370;2023-12-28T05:29:40;99689.35;;;5.85;100.00
70488;BME280;57976;48.174;16.370;2023-12-28T05:31:44;99694.75;;;5.82;100.00
70488;BME280;57976;48.174;16.370;2023-12-28T05:33:49;99691.50;;;5.85;100.00
70488;BME280;57976;48.174;16.370;2023-12-28T05:35:54;99691.77;;;5.87;100.00
70488;BME280;57976;48.174;16.370;2023-12-28T05:37:59;99704.46;;;5.90;100.00
70488;BME280;57976;48.174;16.370;2023-12-28T05:40:05;99689.66;;;5.92;100.00
70488;BME280;57976;48.174;16.370;2023-12-28T05:42:10;99689.95;;;5.91;100.00
70488;BME280;57976;48.174;16.370;2023-12-28T05:44:15;99688.10;;;5.90;100.00
70488;BME280;57976;48.174;16.370;2023-12-28T05:46:20;99687.05;;;5.83;100.00
70488;BME280;57976;48.174;16.370;2023-12-28T05:48:25;99701.04;;;5.78;100.00
70488;BME280;57976;48.174;16.370;2023-12-28T05:50:30;99706.27;;;5.75;100.00
70488;BME280;57976;48.174;16.370;2023-12-28T05:52:34;99710.02;;;5.76;100.00
70488;BME280;57976;48.174;16.370;2023-12-28T05:54:39;99715.46;;;5.76;100.00
70488;BME280;57976;48.174;16.370;2023-12-28T05:56:47;99712.25;;;5.72;100.00
70488;BME280;57976;48.174;16.370;2023-12-28T05:58:55;99707.55;;;5.68;100.00
70488;BME280;57976;48.174;16.370;2023-12-28T06:01:00;99707.84;;;5.68;100.00
70488;BME280;57976;48.174;16.370;2023-12-28T06:03:06;99700.19;;;5.72;100.00
70488;BME280;57976;48.174;16.370;2023-12-28T06:05:11;99703.45;;;5.78;100.00
70488;BME280;57976;48.174;16.370;2023-12-28T06:07:16;99702.19;;;5.78;100.00
70488;BME280;57976;48.174;16.370;2023-12-28T06:09:20;99713.98;;;5.75;100.00
70488;BME280;57976;48.174;16.370;2023-12-28T06:11:28;99721.27;;;5.73;100.00
70488;BME280;57976;48.174;16.370;2023-12-28T06:13:33;99726.06;;;5.73;100.00
70488;BME280;57976;48.174;16.370;2023-12-28T06:15:38;99736.25;;;5.70;100.00
70488;BME280;57976;48.174;16.370;2023-12-28T06:17:43;99728.08;;;5.67;100.00
70488;BME280;57976;48.174;16.370;2023-12-28T06:19:48;99728.04;;;5.62;100.00
70488;BME280;57976;48.174;16.370;2023-12-28T06:21:53;99727.01;;;5.61;100.00
70488;BME280;57976;48.174;16.370;2023-12-28T06:23:58;99720.05;;;5.60;100.00
70488;BME280;57976;48.174;16.370;2023-12-28T06:26:06;99715.89;;;5.66;100.00
70488;BME280;57976;48.174;16.370;2023-12-28T06:28:12;99718.31;;;5.71;100.00
70488;BME280;57976;48.174;16.370;2023-12-28T06:30:19;99727.16;;;5.69;100.00
70488;BME280;57976;48.174;16.370;2023-12-28T06:32:24;99720.30;;;5.67;100.00
70488;BME280;57976;48.174;16.370;2023-12-28T06:34:32;99720.39;;;5.65;100.00
70488;BME280;57976;48.174;16.370;2023-12-28T06:36:36;99722.30;;;5.63;100.00
70488;BME280;57976;48.174;16.370;2023-12-28T06:38:41;99721.78;;;5.68;100.00
70488;BME280;57976;48.174;16.370;2023-12-28T06:40:46;99729.20;;;5.75;100.00
70488;BME280;57976;48.174;16.370;2023-12-28T06:42:50;99727.73;;;5.80;100.00
70488;BME280;57976;48.174;16.370;2023-12-28T06:44:55;99725.66;;;5.81;100.00
70488;BME280;57976;48.174;16.370;2023-12-28T06:47:00;99727.65;;;5.86;100.00
70488;BME280;57976;48.174;16.370;2023-12-28T06:49:05;99732.41;;;5.93;100.00
70488;BME280;57976;48.174;16.370;2023-12-28T06:51:19;99738.31;;;6.00;100.00
70488;BME280;57976;48.174;16.370;2023-12-28T06:53:24;99736.33;;;6.01;100.00
70488;BME280;57976;48.174;16.370;2023-12-28T06:55:29;99733.25;;;5.98;100.00
70488;BME280;57976;48.174;16.370;2023-12-28T06:57:34;99731.43;;;5.97;100.00
70488;BME280;57976;48.174;16.370;2023-12-28T06:59:38;99741.25;;;5.99;100.00
70488;BME280;57976;48.174;16.370;2023-12-28T07:01:43;99742.81;;;6.06;100.00
70488;BME280;57976;48.174;16.370;2023-12-28T07:03:48;99732.97;;;6.09;100.00
70488;BME280;57976;48.174;16.370;2023-12-28T07:05:53;99737.08;;;6.17;100.00
70488;BME280;57976;48.174;16.370;2023-12-28T07:07:57;99734.31;;;6.24;100.00
70488;BME280;57976;48.174;16.370;2023-12-28T07:10:03;99744.39;;;6.29;100.00
70488;BME280;57976;48.174;16.370;2023-12-28T07:12:09;99752.71;;;6.24;100.00
70488;BME280;57976;48.174;16.370;2023-12-28T07:14:13;99757.46;;;6.12;100.00
70488;BME280;57976;48.174;16.370;2023-12-28T07:16:18;99750.40;;;6.08;100.00
70488;BME280;57976;48.174;16.370;2023-12-28T07:18:26;99751.60;;;6.11;100.00
70488;BME280;57976;48.174;16.370;2023-12-28T07:20:31;99755.48;;;6.18;100.00
70488;BME280;57976;48.174;16.370;2023-12-28T07:22:36;99745.79;;;6.24;100.00
70488;BME280;57976;48.174;16.370;2023-12-28T07:24:40;99747.44;;;6.25;100.00
70488;BME280;57976;48.174;16.370;2023-12-28T07:26:45;99753.64;;;6.27;100.00
70488;BME280;57976;48.174;16.370;2023-12-28T07:28:50;99756.24;;;6.32;100.00
70488;BME280;57976;48.174;16.370;2023-12-28T07:30:55;99761.33;;;6.34;100.00
70488;BME280;57976;48.174;16.370;2023-12-28T07:33:00;99757.77;;;6.34;100.00
70488;BME280;57976;48.174;16.370;2023-12-28T07:35:05;99764.21;;;6.38;100.00
70488;BME280;57976;48.174;16.370;2023-12-28T07:37:10;99761.10;;;6.42;100.00
70488;BME280;57976;48.174;16.370;2023-12-28T07:39:14;99760.15;;;6.46;100.00
70488;BME280;57976;48.174;16.370;2023-12-28T07:41:19;99761.00;;;6.43;100.00
70488;BME280;57976;48.174;16.370;2023-12-28T07:43:24;99760.08;;;6.37;100.00
70488;BME280;57976;48.174;16.370;2023-12-28T07:45:29;99752.05;;;6.35;100.00
70488;BME280;57976;48.174;16.370;2023-12-28T07:47:38;99757.52;;;6.35;100.00
70488;BME280;57976;48.174;16.370;2023-12-28T07:49:46;99760.40;;;6.36;100.00
70488;BME280;57976;48.174;16.370;2023-12-28T07:51:51;99757.95;;;6.34;100.00
70488;BME280;57976;48.174;16.370;2023-12-28T07:53:59;99755.13;;;6.37;100.00
70488;BME280;57976;48.174;16.370;2023-12-28T07:56:04;99747.62;;;6.40;100.00
70488;BME280;57976;48.174;16.370;2023-12-28T07:58:11;99756.03;;;6.40;100.00
70488;BME280;57976;48.174;16.370;2023-12-28T08:00:16;99759.22;;;6.40;100.00
70488;BME280;57976;48.174;16.370;2023-12-28T08:02:21;99748.91;;;6.36;100.00
70488;BME280;57976;48.174;16.370;2023-12-28T08:04:26;99756.61;;;6.32;100.00
70488;BME280;57976;48.174;16.370;2023-12-28T08:06:31;99762.48;;;6.28;100.00
70488;BME280;57976;48.174;16.370;2023-12-28T08:08:35;99765.14;;;6.25;100.00
70488;BME280;57976;48.174;16.370;2023-12-28T08:10:40;99765.70;;;6.20;100.00
70488;BME280;57976;48.174;16.370;2023-12-28T08:12:45;99765.58;;;6.11;100.00
70488;BME280;57976;48.174;16.370;2023-12-28T08:14:50;99767.19;;;5.97;100.00
70488;BME280;57976;48.174;16.370;2023-12-28T08:16:55;99763.46;;;5.86;100.00
70488;BME280;57976;48.174;16.370;2023-12-28T08:18:59;99770.34;;;5.82;100.00
70488;BME280;57976;48.174;16.370;2023-12-28T08:21:04;99777.52;;;5.91;100.00
70488;BME280;57976;48.174;16.370;2023-12-28T08:23:09;99778.39;;;5.96;100.00
70488;BME280;57976;48.174;16.370;2023-12-28T08:25:22;99779.89;;;6.01;100.00
70488;BME280;57976;48.174;16.370;2023-12-28T08:27:26;99779.60;;;6.00;100.00
70488;BME280;57976;48.174;16.370;2023-12-28T08:29:31;99784.98;;;6.02;100.00
70488;BME280;57976;48.174;16.370;2023-12-28T08:31:36;99779.89;;;5.99;100.00
70488;BME280;57976;48.174;16.370;2023-12-28T08:33:42;99779.16;;;5.91;100.00
70488;BME280;57976;48.174;16.370;2023-12-28T08:35:47;99784.02;;;5.88;100.00
70488;BME280;57976;48.174;16.370;2023-12-28T08:37:52;99781.44;;;5.92;100.00
70488;BME280;57976;48.174;16.370;2023-12-28T08:39:56;99780.31;;;5.98;100.00
70488;BME280;57976;48.174;16.370;2023-12-28T08:42:01;99783.77;;;6.01;100.00
70488;BME280;57976;48.174;16.370;2023-12-28T08:44:06;99793.58;;;6.05;100.00
70488;BME280;57976;48.174;16.370;2023-12-28T08:46:11;99799.98;;;6.07;100.00
70488;BME280;57976;48.174;16.370;2023-12-28T08:48:15;99799.18;;;6.10;100.00
70488;BME280;57976;48.174;16.370;2023-12-28T08:50:20;99798.41;;;6.14;100.00
70488;BME280;57976;48.174;16.370;2023-12-28T08:52:25;99798.01;;;6.16;100.00
70488;BME280;57976;48.174;16.370;2023-12-28T08:54:30;99807.05;;;6.17;100.00
70488;BME280;57976;48.174;16.370;2023-12-28T08:56:35;99809.11;;;6.16;100.00
70488;BME280;57976;48.174;16.370;2023-12-28T08:58:40;99807.13;;;6.18;100.00
70488;BME280;57976;48.174;16.370;2023-12-28T09:00:45;99811.58;;;6.21;100.00
70488;BME280;57976;48.174;16.370;2023-12-28T09:02:49;99804.98;;;6.22;100.00
70488;BME280;57976;48.174;16.370;2023-12-28T09:04:54;99803.59;;;6.28;100.00
70488;BME280;57976;48.174;16.370;2023-12-28T09:06:59;99803.71;;;6.30;100.00
70488;BME280;57976;48.174;16.370;2023-12-28T09:09:04;99808.61;;;6.30;100.00
70488;BME280;57976;48.174;16.370;2023-12-28T09:11:10;99807.11;;;6.30;100.00
70488;BME280;57976;48.174;16.370;2023-12-28T09:13:18;99806.95;;;6.34;100.00
70488;BME280;57976;48.174;16.370;2023-12-28T09:15:23;99810.23;;;6.36;100.00
70488;BME280;57976;48.174;16.370;2023-12-28T09:17:28;99806.11;;;6.32;100.00
70488;BME280;57976;48.174;16.370;2023-12-28T09:19:32;99811.48;;;6.30;100.00
70488;BME280;57976;48.174;16.370;2023-12-28T09:21:37;99815.61;;;6.33;100.00
70488;BME280;57976;48.174;16.370;2023-12-28T09:23:42;99814.37;;;6.36;100.00
70488;BME280;57976;48.174;16.370;2023-12-28T09:25:47;99812.73;;;6.41;100.00
70488;BME280;57976;48.174;16.370;2023-12-28T09:27:51;99813.80;;;6.45;100.00
70488;BME280;57976;48.174;16.370;2023-12-28T09:29:56;99809.73;;;6.49;100.00
70488;BME280;57976;48.174;16.370;2023-12-28T09:32:05;99808.41;;;6.55;100.00
70488;BME280;57976;48.174;16.370;2023-12-28T09:34:10;99803.96;;;6.57;100.00
70488;BME280;57976;48.174;16.370;2023-12-28T09:36:14;99802.56;;;6.58;100.00
70488;BME280;57976;48.174;16.370;2023-12-28T09:38:19;99796.89;;;6.60;100.00
70488;BME280;57976;48.174;16.370;2023-12-28T09:40:25;99791.36;;;6.66;100.00
70488;BME280;57976;48.174;16.370;2023-12-28T09:42:34;99797.09;;;6.69;100.00
70488;BME280;57976;48.174;16.370;2023-12-28T09:44:43;99805.67;;;6.58;100.00
70488;BME280;57976;48.174;16.370;2023-12-28T09:46:48;99800.71;;;6.53;100.00
70488;BME280;57976;48.174;16.370;2023-12-28T09:48:53;99791.48;;;6.50;100.00
70488;BME280;57976;48.174;16.370;2023-12-28T09:50:58;99790.83;;;6.50;100.00
70488;BME280;57976;48.174;16.370;2023-12-28T09:53:03;99789.48;;;6.51;100.00
70488;BME280;57976;48.174;16.370;2023-12-28T09:55:08;99793.70;;;6.51;100.00
70488;BME280;57976;48.174;16.370;2023-12-28T09:57:13;99784.40;;;6.55;100.00
70488;BME280;57976;48.174;16.370;2023-12-28T09:59:18;99782.69;;;6.61;100.00
70488;BME280;57976;48.174;16.370;2023-12-28T10:01:26;99783.92;;;6.61;100.00
70488;BME280;57976;48.174;16.370;2023-12-28T10:03:31;99782.88;;;6.55;100.00
70488;BME280;57976;48.174;16.370;2023-12-28T10:05:36;99771.59;;;6.56;100.00
70488;BME280;57976;48.174;16.370;2023-12-28T10:07:43;99774.82;;;6.65;100.00
70488;BME280;57976;48.174;16.370;2023-12-28T10:09:55;99767.92;;;6.65;100.00
70488;BME280;57976;48.174;16.370;2023-12-28T10:12:01;99764.13;;;6.70;100.00
70488;BME280;57976;48.174;16.370;2023-12-28T10:14:06;99764.66;;;6.75;100.00
70488;BME280;57976;48.174;16.370;2023-12-28T10:16:12;99765.12;;;6.79;100.00
70488;BME280;57976;48.174;16.370;2023-12-28T10:18:18;99759.89;;;6.75;100.00
70488;BME280;57976;48.174;16.370;2023-12-28T10:20:28;99765.28;;;6.77;100.00
70488;BME280;57976;48.174;16.370;2023-12-28T10:22:33;99761.84;;;6.81;100.00
70488;BME280;57976;48.174;16.370;2023-12-28T10:24:42;99753.84;;;6.82;100.00
70488;BME280;57976;48.174;16.370;2023-12-28T10:26:47;99752.52;;;6.76;100.00
70488;BME280;57976;48.174;16.370;2023-12-28T10:29:00;99751.85;;;6.69;100.00
70488;BME280;57976;48.174;16.370;2023-12-28T10:31:05;99747.94;;;6.69;100.00
70488;BME280;57976;48.174;16.370;2023-12-28T10:33:11;99740.52;;;6.69;100.00
70488;BME280;57976;48.174;16.370;2023-12-28T10:35:19;99745.34;;;6.70;100.00
70488;BME280;57976;48.174;16.370;2023-12-28T10:37:28;99741.16;;;6.74;100.00
70488;BME280;57976;48.174;16.370;2023-12-28T10:39:36;99743.81;;;6.77;100.00
70488;BME280;57976;48.174;16.370;2023-12-28T10:41:42;99742.77;;;6.72;100.00
70488;BME280;57976;48.174;16.370;2023-12-28T10:43:54;99742.86;;;6.67;100.00
70488;BME280;57976;48.174;16.370;2023-12-28T10:46:03;99737.06;;;6.67;100.00
70488;BME280;57976;48.174;16.370;2023-12-28T10:48:09;99731.90;;;6.69;100.00
70488;BME280;57976;48.174;16.370;2023-12-28T10:50:16;99727.89;;;6.70;100.00
70488;BME280;57976;48.174;16.370;2023-12-28T10:52:24;99726.30;;;6.70;100.00
70488;BME280;57976;48.174;16.370;2023-12-28T10:54:41;99730.02;;;6.70;100.00
70488;BME280;57976;48.174;16.370;2023-12-28T10:56:55;99735.52;;;6.69;100.00